createdAt,value
2023-04-08T00:01:43.522Z,34.35
2023-04-08T00:04:46.087Z,58.38
2023-04-08T00:07:48.541Z,46.42
2023-04-08T00:10:51.297Z,30.52
2023-04-08T00:13:53.953Z,27.55
2023-04-08T00:16:56.422Z,40.17
2023-04-08T00:19:58.851Z,29.30
2023-04-08T00:23:01.235Z,25.23
2023-04-08T00:26:03.769Z,25.60
2023-04-08T00:29:06.332Z,28.35
2023-04-08T00:32:08.997Z,27.52
2023-04-08T00:35:13.028Z,43.25
2023-04-08T00:38:15.915Z,50.50
2023-04-08T00:41:18.304Z,44.13
2023-04-08T00:47:52.982Z,32.35
2023-04-08T00:50:55.672Z,31.45
2023-04-08T00:53:58.388Z,32.13
2023-04-08T00:57:01.320Z,25.70
2023-04-08T01:00:08.475Z,20.70
2023-04-08T01:03:28.432Z,20.98
2023-04-08T01:06:35.072Z,23.17
2023-04-08T01:09:40.059Z,32.03
2023-04-08T01:12:45.357Z,19.73
2023-04-08T01:15:47.977Z,20.40
2023-04-08T01:18:51.909Z,22.92
2023-04-08T01:21:58.069Z,21.90
2023-04-08T01:25:04.931Z,34.67
2023-04-08T01:28:12.744Z,26.98
2023-04-08T01:31:15.665Z,20.33
2023-04-08T01:34:19.857Z,31.88
2023-04-08T01:37:22.901Z,47.00
2023-04-08T01:40:29.680Z,47.08
2023-04-08T01:43:32.884Z,55.33
2023-04-08T01:46:35.949Z,23.90
2023-04-08T01:49:38.924Z,28.33
2023-04-08T01:52:44.910Z,28.58
2023-04-08T01:55:51.111Z,27.10
2023-04-08T01:58:54.850Z,27.73
2023-04-08T02:01:57.851Z,24.75
2023-04-08T02:05:00.368Z,26.40
2023-04-08T02:08:02.683Z,25.50
2023-04-08T02:11:05.295Z,25.88
2023-04-08T02:14:07.998Z,25.80
2023-04-08T02:17:15.073Z,27.60
2023-04-08T02:20:19.416Z,32.08
2023-04-08T02:23:23.900Z,29.38
2023-04-08T02:26:26.935Z,37.80
2023-04-08T02:29:32.893Z,31.00
2023-04-08T02:32:36.318Z,45.77
2023-04-08T02:35:41.256Z,47.53
2023-04-08T02:38:50.419Z,29.00
2023-04-08T02:41:53.025Z,32.97
2023-04-08T02:44:58.372Z,30.48
2023-04-08T02:48:01.674Z,21.35
2023-04-08T02:51:04.312Z,24.45
2023-04-08T02:54:06.673Z,25.30
2023-04-08T02:57:09.133Z,33.88
2023-04-08T03:00:12.215Z,29.20
2023-04-08T03:03:14.715Z,20.90
2023-04-08T03:06:17.326Z,35.42
2023-04-08T03:09:19.917Z,34.53
2023-04-08T03:12:23.265Z,35.95
2023-04-08T03:15:25.839Z,27.98
2023-04-08T03:18:28.230Z,30.30
2023-04-08T03:21:32.349Z,42.70
2023-04-08T03:24:34.710Z,32.20
2023-04-08T03:27:36.969Z,23.67
2023-04-08T03:30:39.210Z,30.10
2023-04-08T03:33:41.579Z,40.40
2023-04-08T03:36:44.259Z,38.60
2023-04-08T03:39:46.850Z,29.17
2023-04-08T03:42:49.316Z,30.35
2023-04-08T03:45:51.800Z,44.08
2023-04-08T03:48:54.280Z,53.53
2023-04-08T03:51:56.842Z,34.95
2023-04-08T03:54:59.239Z,34.97
2023-04-08T03:58:01.632Z,35.25
2023-04-08T04:01:04.039Z,34.83
2023-04-08T04:04:07.015Z,37.75
2023-04-08T04:07:09.605Z,37.83
2023-04-08T04:10:12.259Z,51.00
2023-04-08T04:13:14.618Z,47.38
2023-04-08T04:16:17.158Z,40.83
2023-04-08T04:19:19.554Z,34.30
2023-04-08T04:22:21.936Z,30.20
2023-04-08T04:25:25.952Z,53.13
2023-04-08T04:31:30.955Z,29.77
2023-04-08T04:34:33.655Z,35.90
2023-04-08T04:37:36.581Z,42.97
2023-04-08T04:40:39.851Z,29.10
2023-04-08T04:43:42.451Z,38.67
2023-04-08T04:46:45.068Z,33.17
2023-04-08T04:49:47.779Z,42.15
2023-04-08T04:52:50.194Z,40.70
2023-04-08T04:55:52.887Z,33.92
2023-04-08T04:58:55.318Z,36.22
2023-04-08T05:01:58.021Z,33.47
2023-04-08T05:05:00.633Z,30.98
2023-04-08T05:08:03.087Z,32.95
2023-04-08T05:11:05.614Z,34.25
2023-04-08T05:14:08.437Z,29.00
2023-04-08T05:17:11.188Z,37.83
2023-04-08T05:20:16.416Z,25.85
2023-04-08T05:23:20.027Z,22.35
2023-04-08T05:26:22.603Z,27.73
2023-04-08T05:29:25.274Z,31.67
2023-04-08T05:32:28.001Z,25.88
2023-04-08T05:35:30.438Z,43.40
2023-04-08T05:38:32.931Z,21.67
2023-04-08T05:41:35.509Z,21.17
2023-04-08T05:44:38.884Z,22.08
2023-04-08T05:47:41.506Z,14.35
2023-04-08T05:50:43.991Z,20.35
2023-04-08T05:53:47.245Z,22.13
2023-04-08T05:56:49.735Z,17.42
2023-04-08T05:59:53.506Z,19.75
2023-04-08T06:02:56.245Z,26.20
2023-04-08T06:05:58.712Z,23.33
2023-04-08T06:09:01.255Z,39.25
2023-04-08T06:12:03.709Z,17.17
2023-04-08T06:15:07.664Z,16.25
2023-04-08T06:18:09.947Z,19.60
2023-04-08T06:21:12.339Z,18.08
2023-04-08T06:24:14.728Z,18.05
2023-04-08T06:27:17.296Z,20.98
2023-04-08T06:30:19.724Z,21.17
2023-04-08T06:33:22.056Z,20.88
2023-04-08T06:36:24.391Z,22.23
2023-04-08T06:39:26.678Z,23.13
2023-04-08T06:42:29.157Z,18.60
2023-04-08T06:45:54.037Z,31.55
2023-04-08T06:48:56.734Z,29.08
2023-04-08T06:51:59.094Z,25.00
2023-04-08T06:55:01.843Z,26.65
2023-04-08T06:58:04.259Z,25.13
2023-04-08T07:01:06.865Z,30.77
2023-04-08T07:04:09.281Z,30.17
2023-04-08T07:07:11.622Z,25.35
2023-04-08T07:10:14.225Z,28.42
2023-04-08T07:13:17.575Z,25.50
2023-04-08T07:16:19.990Z,18.83
2023-04-08T07:19:24.559Z,31.40
2023-04-08T07:22:27.076Z,30.42
2023-04-08T07:25:29.380Z,28.75
2023-04-08T07:28:32.392Z,29.15
2023-04-08T07:31:34.745Z,32.92
2023-04-08T07:34:37.102Z,25.77
2023-04-08T07:37:39.851Z,28.02
2023-04-08T07:40:42.220Z,28.38
2023-04-08T07:43:44.528Z,24.67
2023-04-08T07:46:50.966Z,24.60
2023-04-08T07:49:54.722Z,25.20
2023-04-08T07:52:57.057Z,21.42
2023-04-08T07:55:59.438Z,26.20
2023-04-08T07:59:02.170Z,21.90
2023-04-08T08:02:04.602Z,26.65
2023-04-08T08:05:07.969Z,38.65
2023-04-08T08:08:13.671Z,16.17
2023-04-08T08:11:16.234Z,27.88
2023-04-08T08:14:18.736Z,42.47
2023-04-08T08:17:21.885Z,25.90
2023-04-08T08:20:24.583Z,24.63
2023-04-08T08:23:27.279Z,23.35
2023-04-08T08:26:29.994Z,21.92
2023-04-08T08:29:32.547Z,34.55
2023-04-08T08:32:34.996Z,21.17
2023-04-08T08:35:37.857Z,35.15
2023-04-08T08:38:40.730Z,28.50
2023-04-08T13:39:54.375Z,18.48
2023-04-08T13:42:56.810Z,19.75
2023-04-08T13:45:59.695Z,32.55
2023-04-08T13:49:03.514Z,21.45
2023-04-08T13:52:05.970Z,11.50
2023-04-08T13:55:09.001Z,17.13
2023-04-08T13:58:22.939Z,16.45
2023-04-08T14:01:26.906Z,14.63
2023-04-08T14:04:29.755Z,15.38
2023-04-08T14:07:32.647Z,15.45
2023-04-08T14:10:35.401Z,12.90
2023-04-08T14:13:38.214Z,14.07
2023-04-08T14:16:41.908Z,14.77
2023-04-08T14:19:44.555Z,9.68
2023-04-08T14:22:47.301Z,14.50
2023-04-08T14:25:49.663Z,13.48
2023-04-08T14:28:52.591Z,14.65
2023-04-08T14:31:55.366Z,13.63
2023-04-08T14:34:57.892Z,14.20
2023-04-08T14:38:00.481Z,13.38
2023-04-08T14:41:02.930Z,13.63
2023-04-08T14:44:05.670Z,13.40
2023-04-08T14:47:08.436Z,14.38
2023-04-08T14:50:11.177Z,14.00
2023-04-08T14:53:14.314Z,13.75
2023-04-08T14:56:17.443Z,14.93
2023-04-08T14:59:20.787Z,13.77
2023-04-08T15:02:24.100Z,8.73
2023-04-08T15:05:26.893Z,13.10
2023-04-08T15:08:29.666Z,13.48
2023-04-08T15:11:32.079Z,13.43
2023-04-08T15:14:34.789Z,12.40
2023-04-08T15:17:37.738Z,12.70
2023-04-08T15:20:40.423Z,13.90
2023-04-08T15:23:43.765Z,12.57
2023-04-08T15:26:46.509Z,13.05
2023-04-08T15:29:49.706Z,11.88
2023-04-08T15:32:52.822Z,13.23
2023-04-08T15:35:56.170Z,11.40
2023-04-08T15:38:58.860Z,12.80
2023-04-08T15:42:01.674Z,12.02
2023-04-08T15:45:05.383Z,15.18
2023-04-08T15:48:07.975Z,16.08
2023-04-08T15:51:12.794Z,18.55
2023-04-08T15:54:15.759Z,19.83
2023-04-08T15:57:18.285Z,17.33
2023-04-08T16:00:21.021Z,16.73
2023-04-08T16:03:23.745Z,16.45
2023-04-08T16:06:27.025Z,17.10
2023-04-08T16:09:30.623Z,16.80
2023-04-08T16:12:33.348Z,18.70
2023-04-08T16:15:36.264Z,18.42
2023-04-08T16:18:39.394Z,17.85
2023-04-08T16:21:42.112Z,18.60
2023-04-08T16:24:44.760Z,18.60
2023-04-08T16:27:48.050Z,17.08
2023-04-08T16:30:50.548Z,18.83
2023-04-08T16:33:52.973Z,19.05
2023-04-08T16:36:55.648Z,33.47
2023-04-08T16:39:58.444Z,28.40
2023-04-08T16:43:01.852Z,20.23
2023-04-08T16:46:16.541Z,17.45
2023-04-08T16:49:18.958Z,17.60
2023-04-08T16:52:21.813Z,17.73
2023-04-08T16:55:24.455Z,17.33
2023-04-08T16:58:26.964Z,25.90
2023-04-08T17:01:29.924Z,48.97
2023-04-08T17:04:32.819Z,38.03
2023-04-08T17:07:35.389Z,24.73
2023-04-08T17:10:37.816Z,21.05
2023-04-08T17:13:42.098Z,20.40
2023-04-08T17:16:44.721Z,17.00
2023-04-08T17:19:47.337Z,18.70
2023-04-08T17:22:50.091Z,56.95
2023-04-08T17:25:54.060Z,44.88
2023-04-08T17:28:56.789Z,30.27
2023-04-08T17:31:59.232Z,23.90
2023-04-08T17:35:02.974Z,33.50
2023-04-08T17:38:05.706Z,59.25
2023-04-08T17:41:08.439Z,57.00
2023-04-08T17:44:11.125Z,23.08
2023-04-08T17:47:13.557Z,27.33
2023-04-08T17:50:18.282Z,27.83
2023-04-08T17:53:20.997Z,26.23
2023-04-08T17:56:23.705Z,32.53
2023-04-08T17:59:26.536Z,33.95
2023-04-08T18:02:29.252Z,39.05
2023-04-08T18:05:32.674Z,47.83
2023-04-08T18:08:35.959Z,58.13
2023-04-08T18:11:38.326Z,51.25
2023-04-08T18:14:41.022Z,49.97
2023-04-08T18:17:43.644Z,48.88
2023-04-08T18:20:45.993Z,56.22
2023-04-08T18:23:51.396Z,60.45
2023-04-08T18:27:04.476Z,66.85
2023-04-08T18:30:11.019Z,57.40
2023-04-08T18:33:14.272Z,46.72
2023-04-08T18:36:17.675Z,26.52
2023-04-08T18:39:20.285Z,24.85
2023-04-08T18:42:22.768Z,23.70
2023-04-08T18:45:25.705Z,32.28
2023-04-08T18:48:28.641Z,31.00
2023-04-08T18:51:31.080Z,39.90
2023-04-08T18:54:33.869Z,44.28
2023-04-08T18:57:36.304Z,52.25
2023-04-08T19:00:42.105Z,59.15
2023-04-08T19:03:44.813Z,50.10
2023-04-08T19:06:47.480Z,40.47
2023-04-08T19:09:50.050Z,36.28
2023-04-08T19:12:52.450Z,38.35
2023-04-08T19:15:54.790Z,37.65
2023-04-08T19:18:57.375Z,40.67
2023-04-08T19:22:02.871Z,41.63
2023-04-08T19:25:05.646Z,38.78
2023-04-08T19:28:13.437Z,33.63
2023-04-08T19:31:17.324Z,34.75
2023-04-08T19:34:19.749Z,32.22
2023-04-08T19:37:22.094Z,36.55
2023-04-08T19:40:24.420Z,34.78
2023-04-08T19:43:27.622Z,36.35
2023-04-08T19:46:30.094Z,38.78
2023-04-08T19:49:32.626Z,39.75
2023-04-08T19:52:35.126Z,37.00
2023-04-08T19:55:37.927Z,35.72
2023-04-08T19:58:40.318Z,29.08
2023-04-08T20:01:42.713Z,26.00
2023-04-08T20:04:45.745Z,30.92
2023-04-08T20:07:48.439Z,36.20
2023-04-08T20:10:51.082Z,32.65
2023-04-08T20:13:53.605Z,35.38
2023-04-08T20:16:55.838Z,41.78
2023-04-08T20:19:58.163Z,36.75
2023-04-08T20:23:01.003Z,35.50
2023-04-08T20:26:03.404Z,37.17
2023-04-08T20:29:06.057Z,44.78
2023-04-08T20:32:08.445Z,38.20
2023-04-08T20:35:11.125Z,37.97
2023-04-08T20:38:13.711Z,39.05
2023-04-08T20:41:23.092Z,42.30
2023-04-08T20:44:26.732Z,39.15
2023-04-08T20:47:29.115Z,29.90
2023-04-08T20:50:31.513Z,40.78
2023-04-08T20:53:34.647Z,39.60
2023-04-08T20:56:37.014Z,48.58
2023-04-08T20:59:39.383Z,47.30
2023-04-08T21:02:41.957Z,87.78
2023-04-08T21:05:44.526Z,55.55
2023-04-08T21:08:47.652Z,51.55
2023-04-08T21:11:50.080Z,156.27
2023-04-08T21:14:52.470Z,280.00
2023-04-08T21:17:54.988Z,190.52
2023-04-08T21:20:57.560Z,178.70
2023-04-08T21:24:00.758Z,85.47
2023-04-08T21:27:03.219Z,46.67
2023-04-08T21:30:06.331Z,41.63
2023-04-08T21:33:09.107Z,36.25
2023-04-08T21:36:11.682Z,45.95
2023-04-08T21:39:14.163Z,49.80
2023-04-08T21:42:16.432Z,65.90
2023-04-08T21:45:19.257Z,58.13
2023-04-08T21:48:21.699Z,50.92
2023-04-08T21:51:24.024Z,49.80
2023-04-08T21:54:26.413Z,117.70
2023-04-08T21:57:28.826Z,107.72
2023-04-08T22:00:31.353Z,99.35
2023-04-08T22:03:34.189Z,63.80
2023-04-08T22:06:36.665Z,42.33
2023-04-08T22:09:39.092Z,43.25
2023-04-08T22:12:41.426Z,38.17
2023-04-08T22:15:44.008Z,34.35
2023-04-08T22:18:46.743Z,48.55
2023-04-08T22:21:51.125Z,56.72
2023-04-08T22:24:53.576Z,52.35
2023-04-08T22:27:56.289Z,40.08
2023-04-08T22:30:59.820Z,37.92
2023-04-08T22:34:02.314Z,42.80
2023-04-08T22:37:04.849Z,39.58
2023-04-08T22:40:07.939Z,34.03
2023-04-08T22:43:11.530Z,40.35
2023-04-08T22:46:14.680Z,46.65
2023-04-08T22:49:17.017Z,49.15
2023-04-08T22:52:19.328Z,47.67
2023-04-08T22:55:21.691Z,46.60
2023-04-08T22:58:24.158Z,47.92
2023-04-08T23:01:26.535Z,47.25
2023-04-08T23:04:28.972Z,48.38
2023-04-08T23:07:31.957Z,45.22
2023-04-08T23:10:34.757Z,45.92
2023-04-08T23:13:37.179Z,48.53
2023-04-08T23:16:39.524Z,46.00
2023-04-08T23:19:42.541Z,44.45
2023-04-08T23:22:44.870Z,46.22
2023-04-08T23:25:47.903Z,46.08
2023-04-08T23:28:50.748Z,50.47
2023-04-08T23:31:53.655Z,37.63
2023-04-08T23:34:56.246Z,50.28
2023-04-08T23:37:58.643Z,58.35
2023-04-08T23:41:01.507Z,65.93
2023-04-08T23:44:04.022Z,75.47
2023-04-08T23:47:06.595Z,84.82
2023-04-08T23:50:09.721Z,166.95
2023-04-08T23:53:12.112Z,108.90
2023-04-08T23:56:14.564Z,162.45
2023-04-08T23:59:17.173Z,109.78
